sensor_id;sensor_type;location;lat;lon;timestamp;temperature;humidity
21417;DHT22;10869;52.238;10.716;2023-07-09T18:35:42;27.30;84.30
21417;DHT22;10869;52.238;10.716;2023-07-09T18:38:15;27.20;83.30
21417;DHT22;10869;52.238;10.716;2023-07-09T18:40:42;27.20;83.40
21417;DHT22;10869;52.238;10.716;2023-07-09T18:43:17;27.10;83.20
21417;DHT22;10869;52.238;10.716;2023-07-09T18:45:44;27.00;83.50
21417;DHT22;10869;52.238;10.716;2023-07-09T18:48:21;27.00;83.30
21417;DHT22;10869;52.238;10.716;2023-07-09T18:50:51;26.90;83.30
21417;DHT22;10869;52.238;10.716;2023-07-09T18:53:24;26.90;82.70
21417;DHT22;10869;52.238;10.716;2023-07-09T18:55:52;26.80;82.40
21417;DHT22;10869;52.238;10.716;2023-07-09T18:58:25;26.80;83.00
21417;DHT22;10869;52.238;10.716;2023-07-09T19:00:52;26.70;81.80
21417;DHT22;10869;52.238;10.716;2023-07-09T19:03:45;26.70;81.70
21417;DHT22;10869;52.238;10.716;2023-07-09T19:06:11;26.80;81.20
21417;DHT22;10869;52.238;10.716;2023-07-09T19:08:37;26.70;81.20
21417;DHT22;10869;52.238;10.716;2023-07-09T19:11:06;26.70;81.00
21417;DHT22;10869;52.238;10.716;2023-07-09T19:13:32;26.60;80.90
21417;DHT22;10869;52.238;10.716;2023-07-09T19:15:59;26.70;80.20
21417;DHT22;10869;52.238;10.716;2023-07-09T19:18:28;26.60;79.60
21417;DHT22;10869;52.238;10.716;2023-07-09T19:20:57;26.60;79.50
21417;DHT22;10869;52.238;10.716;2023-07-09T19:26:49;26.60;79.70
21417;DHT22;10869;52.238;10.716;2023-07-09T19:44:56;26.30;78.50
21417;DHT22;10869;52.238;10.716;2023-07-09T19:50:44;26.30;78.00
21417;DHT22;10869;52.238;10.716;2023-07-09T19:53:24;26.30;77.80
21417;DHT22;10869;52.238;10.716;2023-07-09T19:55:54;26.30;77.40
21417;DHT22;10869;52.238;10.716;2023-07-09T19:58:22;26.30;77.60
21417;DHT22;10869;52.238;10.716;2023-07-09T20:00:51;26.30;77.70
21417;DHT22;10869;52.238;10.716;2023-07-09T20:06:43;26.30;77.30
21417;DHT22;10869;52.238;10.716;2023-07-09T20:09:13;26.30;77.60
21417;DHT22;10869;52.238;10.716;2023-07-09T20:11:46;26.30;79.10
21417;DHT22;10869;52.238;10.716;2023-07-09T20:14:20;26.20;81.40
21417;DHT22;10869;52.238;10.716;2023-07-09T20:16:47;26.10;84.70
21417;DHT22;10869;52.238;10.716;2023-07-09T20:19:14;25.90;87.50
21417;DHT22;10869;52.238;10.716;2023-07-09T20:21:42;25.80;90.70
21417;DHT22;10869;52.238;10.716;2023-07-09T20:24:16;25.70;91.10
21417;DHT22;10869;52.238;10.716;2023-07-09T20:26:42;25.70;90.90
21417;DHT22;10869;52.238;10.716;2023-07-09T20:29:16;25.70;91.40
21417;DHT22;10869;52.238;10.716;2023-07-09T20:31:45;25.70;91.20
21417;DHT22;10869;52.238;10.716;2023-07-09T20:36:39;25.60;92.20
21417;DHT22;10869;52.238;10.716;2023-07-09T20:39:14;25.50;92.50
21417;DHT22;10869;52.238;10.716;2023-07-09T20:41:41;25.50;92.50
21417;DHT22;10869;52.238;10.716;2023-07-09T20:44:19;25.40;92.80
21417;DHT22;10869;52.238;10.716;2023-07-09T20:46:46;25.30;93.00
21417;DHT22;10869;52.238;10.716;2023-07-09T20:49:33;25.20;93.10
21417;DHT22;10869;52.238;10.716;2023-07-09T20:52:02;25.20;93.20
21417;DHT22;10869;52.238;10.716;2023-07-09T20:54:28;25.10;93.50
21417;DHT22;10869;52.238;10.716;2023-07-09T21:00:20;24.80;93.60
21417;DHT22;10869;52.238;10.716;2023-07-09T21:02:47;24.70;94.10
21417;DHT22;10869;52.238;10.716;2023-07-09T21:08:35;24.50;94.90
21417;DHT22;10869;52.238;10.716;2023-07-09T21:11:00;24.30;95.70
21417;DHT22;10869;52.238;10.716;2023-07-09T21:13:26;24.20;95.90
21417;DHT22;10869;52.238;10.716;2023-07-09T21:15:54;24.10;95.90
21417;DHT22;10869;52.238;10.716;2023-07-09T21:18:33;24.00;96.10
21417;DHT22;10869;52.238;10.716;2023-07-09T21:20:59;24.00;96.50
21417;DHT22;10869;52.238;10.716;2023-07-09T21:23:25;23.90;96.60
21417;DHT22;10869;52.238;10.716;2023-07-09T21:25:51;23.90;96.70
21417;DHT22;10869;52.238;10.716;2023-07-09T21:28:17;23.90;96.70
21417;DHT22;10869;52.238;10.716;2023-07-09T21:30:43;23.80;96.80
21417;DHT22;10869;52.238;10.716;2023-07-09T21:33:14;23.80;97.00
21417;DHT22;10869;52.238;10.716;2023-07-09T21:35:46;23.80;97.50
21417;DHT22;10869;52.238;10.716;2023-07-09T21:38:24;23.70;97.90
21417;DHT22;10869;52.238;10.716;2023-07-09T21:40:51;23.60;98.70
21417;DHT22;10869;52.238;10.716;2023-07-09T21:43:18;23.40;99.90
21417;DHT22;10869;52.238;10.716;2023-07-09T21:49:11;23.00;99.90
21417;DHT22;10869;52.238;10.716;2023-07-09T21:51:39;22.60;99.90
21417;DHT22;10869;52.238;10.716;2023-07-09T21:56:47;22.20;99.90
21417;DHT22;10869;52.238;10.716;2023-07-09T21:59:14;22.00;99.90
21417;DHT22;10869;52.238;10.716;2023-07-09T22:01:42;21.90;99.90
21417;DHT22;10869;52.238;10.716;2023-07-09T22:04:16;21.70;99.90
21417;DHT22;10869;52.238;10.716;2023-07-09T22:06:43;21.60;99.90
21417;DHT22;10869;52.238;10.716;2023-07-09T22:09:13;21.50;99.90
21417;DHT22;10869;52.238;10.716;2023-07-09T22:11:39;21.40;99.90
21417;DHT22;10869;52.238;10.716;2023-07-09T22:14:24;21.30;99.90
21417;DHT22;10869;52.238;10.716;2023-07-09T22:16:51;21.10;99.90
21417;DHT22;10869;52.238;10.716;2023-07-09T22:19:19;21.00;99.90
21417;DHT22;10869;52.238;10.716;2023-07-09T22:21:45;20.90;99.90
21417;DHT22;10869;52.238;10.716;2023-07-09T22:24:14;20.80;99.90
21417;DHT22;10869;52.238;10.716;2023-07-09T22:26:46;20.70;99.90
21417;DHT22;10869;52.238;10.716;2023-07-09T22:29:13;20.60;99.90
21417;DHT22;10869;52.238;10.716;2023-07-09T22:31:40;20.60;99.90
21417;DHT22;10869;52.238;10.716;2023-07-09T22:34:20;20.50;99.90
21417;DHT22;10869;52.238;10.716;2023-07-09T22:36:47;20.50;99.90
21417;DHT22;10869;52.238;10.716;2023-07-09T22:39:15;20.40;99.90
21417;DHT22;10869;52.238;10.716;2023-07-09T22:41:44;20.40;99.90
21417;DHT22;10869;52.238;10.716;2023-07-09T22:44:13;20.40;99.90
21417;DHT22;10869;52.238;10.716;2023-07-09T22:46:41;20.50;99.90
21417;DHT22;10869;52.238;10.716;2023-07-09T22:49:14;20.50;99.90
21417;DHT22;10869;52.238;10.716;2023-07-09T22:51:41;20.60;99.90
21417;DHT22;10869;52.238;10.716;2023-07-09T22:54:13;20.50;99.90
21417;DHT22;10869;52.238;10.716;2023-07-09T22:56:39;20.50;99.90
21417;DHT22;10869;52.238;10.716;2023-07-09T22:59:10;20.50;99.90
